sensor_id;sensor_type;location;lat;lon;timestamp;temperature;humidity
23283;DHT22;11810;51.178;3.878;2023-02-14T00:00:32;2.40;99.90
23283;DHT22;11810;51.178;3.878;2023-02-14T00:03:24;2.40;99.90
23283;DHT22;11810;51.178;3.878;2023-02-14T00:05:49;2.30;99.90
23283;DHT22;11810;51.178;3.878;2023-02-14T00:08:15;2.30;99.90
23283;DHT22;11810;51.178;3.878;2023-02-14T00:10:41;2.30;99.90
23283;DHT22;11810;51.178;3.878;2023-02-14T00:13:06;2.20;99.90
23283;DHT22;11810;51.178;3.878;2023-02-14T00:15:32;2.20;99.90
23283;DHT22;11810;51.178;3.878;2023-02-14T00:17:58;2.20;99.90
23283;DHT22;11810;51.178;3.878;2023-02-14T00:20:27;2.20;99.90
23283;DHT22;11810;51.178;3.878;2023-02-14T00:22:53;2.20;99.90
23283;DHT22;11810;51.178;3.878;2023-02-14T00:25:19;2.20;99.90
23283;DHT22;11810;51.178;3.878;2023-02-14T00:27:45;2.20;99.90
23283;DHT22;11810;51.178;3.878;2023-02-14T00:30:11;2.20;99.90
23283;DHT22;11810;51.178;3.878;2023-02-14T00:32:39;2.20;99.90
23283;DHT22;11810;51.178;3.878;2023-02-14T00:35:06;2.10;99.90
23283;DHT22;11810;51.178;3.878;2023-02-14T00:37:32;2.10;99.90
23283;DHT22;11810;51.178;3.878;2023-02-14T00:39:58;2.10;99.90
23283;DHT22;11810;51.178;3.878;2023-02-14T00:42:24;2.20;99.90
23283;DHT22;11810;51.178;3.878;2023-02-14T00:45:00;2.20;99.90
23283;DHT22;11810;51.178;3.878;2023-02-14T00:47:26;2.20;99.90
23283;DHT22;11810;51.178;3.878;2023-02-14T00:49:52;2.10;99.90
23283;DHT22;11810;51.178;3.878;2023-02-14T00:52:18;2.10;99.90
23283;DHT22;11810;51.178;3.878;2023-02-14T00:54:43;2.00;99.90
23283;DHT22;11810;51.178;3.878;2023-02-14T00:57:32;1.90;99.90
23283;DHT22;11810;51.178;3.878;2023-02-14T00:59:57;1.80;99.90
23283;DHT22;11810;51.178;3.878;2023-02-14T01:03:34;1.80;99.90
23283;DHT22;11810;51.178;3.878;2023-02-14T01:06:35;1.70;99.90
23283;DHT22;11810;51.178;3.878;2023-02-14T01:09:01;1.70;99.90
23283;DHT22;11810;51.178;3.878;2023-02-14T01:13:35;1.70;99.90
23283;DHT22;11810;51.178;3.878;2023-02-14T01:16:05;1.60;99.90
23283;DHT22;11810;51.178;3.878;2023-02-14T01:18:31;1.60;99.90
23283;DHT22;11810;51.178;3.878;2023-02-14T01:20:57;1.60;99.90
23283;DHT22;11810;51.178;3.878;2023-02-14T01:23:22;1.80;99.90
23283;DHT22;11810;51.178;3.878;2023-02-14T01:25:48;1.90;99.90
23283;DHT22;11810;51.178;3.878;2023-02-14T01:28:14;1.90;99.90
23283;DHT22;11810;51.178;3.878;2023-02-14T01:30:40;1.80;99.90
23283;DHT22;11810;51.178;3.878;2023-02-14T01:33:05;1.90;99.90
23283;DHT22;11810;51.178;3.878;2023-02-14T01:35:36;1.90;99.90
23283;DHT22;11810;51.178;3.878;2023-02-14T01:39:37;1.80;99.90
23283;DHT22;11810;51.178;3.878;2023-02-14T01:42:03;1.70;99.90
23283;DHT22;11810;51.178;3.878;2023-02-14T01:45:38;1.60;99.90
23283;DHT22;11810;51.178;3.878;2023-02-14T01:48:03;1.60;99.90
23283;DHT22;11810;51.178;3.878;2023-02-14T01:50:34;1.50;99.90
23283;DHT22;11810;51.178;3.878;2023-02-14T01:53:07;1.50;99.90
23283;DHT22;11810;51.178;3.878;2023-02-14T01:55:38;1.50;99.90
23283;DHT22;11810;51.178;3.878;2023-02-14T01:58:41;1.50;99.90
23283;DHT22;11810;51.178;3.878;2023-02-14T02:01:12;1.50;99.90
23283;DHT22;11810;51.178;3.878;2023-02-14T02:03:53;1.40;99.90
23283;DHT22;11810;51.178;3.878;2023-02-14T02:06:30;1.40;99.90
23283;DHT22;11810;51.178;3.878;2023-02-14T02:11:35;1.60;99.90
23283;DHT22;11810;51.178;3.878;2023-02-14T02:14:03;1.50;99.90
23283;DHT22;11810;51.178;3.878;2023-02-14T02:20:02;1.40;99.90
23283;DHT22;11810;51.178;3.878;2023-02-14T02:33:06;1.00;99.90
23283;DHT22;11810;51.178;3.878;2023-02-14T02:38:29;1.00;99.90
23283;DHT22;11810;51.178;3.878;2023-02-14T02:43:53;0.90;99.90
23283;DHT22;11810;51.178;3.878;2023-02-14T02:46:24;1.00;99.90
23283;DHT22;11810;51.178;3.878;2023-02-14T02:50:50;1.00;99.90
23283;DHT22;11810;51.178;3.878;2023-02-14T02:53:44;1.00;99.90
23283;DHT22;11810;51.178;3.878;2023-02-14T02:58:56;0.90;99.90
23283;DHT22;11810;51.178;3.878;2023-02-14T03:01:27;0.80;99.90
23283;DHT22;11810;51.178;3.878;2023-02-14T03:03:58;0.90;99.90
23283;DHT22;11810;51.178;3.878;2023-02-14T03:06:44;0.80;99.90
23283;DHT22;11810;51.178;3.878;2023-02-14T03:19:46;0.90;99.90
23283;DHT22;11810;51.178;3.878;2023-02-14T03:22:36;0.90;99.90
23283;DHT22;11810;51.178;3.878;2023-02-14T03:28:03;1.00;99.90
23283;DHT22;11810;51.178;3.878;2023-02-14T03:36:02;0.80;99.90
23283;DHT22;11810;51.178;3.878;2023-02-14T03:38:46;0.90;99.90
23283;DHT22;11810;51.178;3.878;2023-02-14T03:41:18;0.80;99.90
23283;DHT22;11810;51.178;3.878;2023-02-14T03:43:52;0.80;99.90
23283;DHT22;11810;51.178;3.878;2023-02-14T03:46:41;0.80;99.90
23283;DHT22;11810;51.178;3.878;2023-02-14T03:49:14;0.70;99.90
23283;DHT22;11810;51.178;3.878;2023-02-14T03:51:46;0.70;99.90
23283;DHT22;11810;51.178;3.878;2023-02-14T03:54:13;0.60;99.90
23283;DHT22;11810;51.178;3.878;2023-02-14T03:57:01;0.60;99.90
23283;DHT22;11810;51.178;3.878;2023-02-14T03:59:29;0.60;99.90
23283;DHT22;11810;51.178;3.878;2023-02-14T04:04:33;0.60;99.90
23283;DHT22;11810;51.178;3.878;2023-02-14T04:08:53;0.50;99.90
23283;DHT22;11810;51.178;3.878;2023-02-14T04:11:54;0.70;99.90
23283;DHT22;11810;51.178;3.878;2023-02-14T04:15:54;0.70;99.90
23283;DHT22;11810;51.178;3.878;2023-02-14T04:18:19;0.70;99.90
23283;DHT22;11810;51.178;3.878;2023-02-14T04:21:04;0.70;99.90
23283;DHT22;11810;51.178;3.878;2023-02-14T04:23:30;0.70;99.90
23283;DHT22;11810;51.178;3.878;2023-02-14T04:25:56;0.70;99.90
23283;DHT22;11810;51.178;3.878;2023-02-14T04:28:21;0.70;99.90
23283;DHT22;11810;51.178;3.878;2023-02-14T04:30:47;0.70;99.90
23283;DHT22;11810;51.178;3.878;2023-02-14T04:35:56;0.70;99.90
23283;DHT22;11810;51.178;3.878;2023-02-14T04:38:22;0.60;99.90
23283;DHT22;11810;51.178;3.878;2023-02-14T04:40:57;0.50;99.90
23283;DHT22;11810;51.178;3.878;2023-02-14T04:43:23;0.50;99.90
23283;DHT22;11810;51.178;3.878;2023-02-14T04:45:48;0.50;99.90
23283;DHT22;11810;51.178;3.878;2023-02-14T04:48:14;0.70;99.90
23283;DHT22;11810;51.178;3.878;2023-02-14T04:50:40;0.70;99.90
23283;DHT22;11810;51.178;3.878;2023-02-14T04:53:06;0.70;99.90
23283;DHT22;11810;51.178;3.878;2023-02-14T05:00:59;0.50;99.90
23283;DHT22;11810;51.178;3.878;2023-02-14T05:03:25;0.50;99.90
23283;DHT22;11810;51.178;3.878;2023-02-14T05:05:50;0.50;99.90
23283;DHT22;11810;51.178;3.878;2023-02-14T05:08:16;0.50;99.90
23283;DHT22;11810;51.178;3.878;2023-02-14T05:10:42;0.50;99.90
23283;DHT22;11810;51.178;3.878;2023-02-14T05:13:08;0.50;99.90
23283;DHT22;11810;51.178;3.878;2023-02-14T05:15:34;0.60;99.90
23283;DHT22;11810;51.178;3.878;2023-02-14T05:19:01;0.60;99.90
23283;DHT22;11810;51.178;3.878;2023-02-14T05:21:27;0.60;99.90
23283;DHT22;11810;51.178;3.878;2023-02-14T05:23:53;0.50;99.90
23283;DHT22;11810;51.178;3.878;2023-02-14T05:26:19;0.30;99.90
23283;DHT22;11810;51.178;3.878;2023-02-14T05:28:45;0.40;99.90
23283;DHT22;11810;51.178;3.878;2023-02-14T05:31:11;0.30;99.90
23283;DHT22;11810;51.178;3.878;2023-02-14T05:35:24;0.40;99.90
23283;DHT22;11810;51.178;3.878;2023-02-14T05:37:50;0.30;99.90
23283;DHT22;11810;51.178;3.878;2023-02-14T05:40:16;0.30;99.90
23283;DHT22;11810;51.178;3.878;2023-02-14T05:42:42;0.30;99.90
23283;DHT22;11810;51.178;3.878;2023-02-14T05:46:05;0.50;99.90
23283;DHT22;11810;51.178;3.878;2023-02-14T05:48:32;0.70;99.90
23283;DHT22;11810;51.178;3.878;2023-02-14T05:51:03;0.80;99.90
23283;DHT22;11810;51.178;3.878;2023-02-14T05:53:29;0.90;99.90
23283;DHT22;11810;51.178;3.878;2023-02-14T05:55:55;0.90;99.90
23283;DHT22;11810;51.178;3.878;2023-02-14T05:58:20;0.90;99.90
23283;DHT22;11810;51.178;3.878;2023-02-14T06:02:06;1.00;99.90
23283;DHT22;11810;51.178;3.878;2023-02-14T06:04:32;0.90;99.90
23283;DHT22;11810;51.178;3.878;2023-02-14T06:09:08;0.80;99.90
23283;DHT22;11810;51.178;3.878;2023-02-14T06:11:34;0.90;99.90
23283;DHT22;11810;51.178;3.878;2023-02-14T06:14:00;0.70;99.90
23283;DHT22;11810;51.178;3.878;2023-02-14T06:16:26;0.70;99.90
23283;DHT22;11810;51.178;3.878;2023-02-14T06:18:52;0.80;99.90
23283;DHT22;11810;51.178;3.878;2023-02-14T06:25:10;0.60;99.90
23283;DHT22;11810;51.178;3.878;2023-02-14T06:27:36;0.50;99.90
23283;DHT22;11810;51.178;3.878;2023-02-14T06:30:03;0.60;99.90
23283;DHT22;11810;51.178;3.878;2023-02-14T06:32:28;0.70;99.90
23283;DHT22;11810;51.178;3.878;2023-02-14T06:34:54;0.70;99.90
23283;DHT22;11810;51.178;3.878;2023-02-14T06:37:20;0.70;99.90
23283;DHT22;11810;51.178;3.878;2023-02-14T06:41:13;0.60;99.90
23283;DHT22;11810;51.178;3.878;2023-02-14T06:44:25;0.60;99.90
23283;DHT22;11810;51.178;3.878;2023-02-14T06:46:51;0.50;99.90
23283;DHT22;11810;51.178;3.878;2023-02-14T06:49:16;0.50;99.90
23283;DHT22;11810;51.178;3.878;2023-02-14T06:51:42;0.50;99.90
23283;DHT22;11810;51.178;3.878;2023-02-14T06:54:08;0.40;99.90
23283;DHT22;11810;51.178;3.878;2023-02-14T06:56:34;0.50;99.90
23283;DHT22;11810;51.178;3.878;2023-02-14T07:00:13;0.60;99.90
23283;DHT22;11810;51.178;3.878;2023-02-14T07:02:39;0.60;99.90
23283;DHT22;11810;51.178;3.878;2023-02-14T07:05:05;0.60;99.90
23283;DHT22;11810;51.178;3.878;2023-02-14T07:07:31;0.70;99.90
23283;DHT22;11810;51.178;3.878;2023-02-14T07:09:57;0.80;99.90
23283;DHT22;11810;51.178;3.878;2023-02-14T07:12:23;0.70;99.90
23283;DHT22;11810;51.178;3.878;2023-02-14T07:14:49;0.70;99.90
23283;DHT22;11810;51.178;3.878;2023-02-14T07:17:15;0.70;99.90
23283;DHT22;11810;51.178;3.878;2023-02-14T07:21:16;0.60;99.90
23283;DHT22;11810;51.178;3.878;2023-02-14T07:25:17;0.60;99.90
23283;DHT22;11810;51.178;3.878;2023-02-14T07:27:43;0.70;99.90
23283;DHT22;11810;51.178;3.878;2023-02-14T07:30:10;0.80;99.90
23283;DHT22;11810;51.178;3.878;2023-02-14T07:32:37;1.00;99.90
23283;DHT22;11810;51.178;3.878;2023-02-14T07:36:19;0.90;99.90
23283;DHT22;11810;51.178;3.878;2023-02-14T07:38:45;1.00;99.90
23283;DHT22;11810;51.178;3.878;2023-02-14T07:41:10;1.00;99.90
23283;DHT22;11810;51.178;3.878;2023-02-14T07:44:59;1.00;99.90
23283;DHT22;11810;51.178;3.878;2023-02-14T07:48:19;1.00;99.90
23283;DHT22;11810;51.178;3.878;2023-02-14T07:52:12;1.10;99.90
23283;DHT22;11810;51.178;3.878;2023-02-14T07:54:38;1.20;99.90
23283;DHT22;11810;51.178;3.878;2023-02-14T07:57:04;1.30;99.90
23283;DHT22;11810;51.178;3.878;2023-02-14T07:59:30;1.40;99.90
23283;DHT22;11810;51.178;3.878;2023-02-14T08:01:56;1.60;99.90
23283;DHT22;11810;51.178;3.878;2023-02-14T08:04:22;1.70;99.90
23283;DHT22;11810;51.178;3.878;2023-02-14T08:06:52;1.90;99.90
23283;DHT22;11810;51.178;3.878;2023-02-14T08:09:19;1.90;99.90
23283;DHT22;11810;51.178;3.878;2023-02-14T08:11:55;2.20;99.90
23283;DHT22;11810;51.178;3.878;2023-02-14T08:14:41;2.50;99.90
23283;DHT22;11810;51.178;3.878;2023-02-14T08:17:07;2.80;99.90
23283;DHT22;11810;51.178;3.878;2023-02-14T08:19:35;2.90;99.90
23283;DHT22;11810;51.178;3.878;2023-02-14T08:22:02;3.00;99.90
23283;DHT22;11810;51.178;3.878;2023-02-14T08:24:28;3.20;99.90
23283;DHT22;11810;51.178;3.878;2023-02-14T08:26:54;3.40;99.90
23283;DHT22;11810;51.178;3.878;2023-02-14T08:29:20;3.60;99.90
23283;DHT22;11810;51.178;3.878;2023-02-14T08:31:46;3.80;99.90
23283;DHT22;11810;51.178;3.878;2023-02-14T08:34:14;4.10;99.90
23283;DHT22;11810;51.178;3.878;2023-02-14T08:36:40;4.40;99.90
23283;DHT22;11810;51.178;3.878;2023-02-14T08:39:07;4.80;99.90
23283;DHT22;11810;51.178;3.878;2023-02-14T08:41:34;5.20;99.90
23283;DHT22;11810;51.178;3.878;2023-02-14T08:44:13;5.50;99.90
23283;DHT22;11810;51.178;3.878;2023-02-14T08:46:40;5.90;99.90
23283;DHT22;11810;51.178;3.878;2023-02-14T08:50:27;6.50;99.90
23283;DHT22;11810;51.178;3.878;2023-02-14T08:52:53;6.90;99.90
23283;DHT22;11810;51.178;3.878;2023-02-14T08:55:19;7.70;99.90
23283;DHT22;11810;51.178;3.878;2023-02-14T08:57:45;8.60;99.90
23283;DHT22;11810;51.178;3.878;2023-02-14T09:00:11;9.50;99.90
23283;DHT22;11810;51.178;3.878;2023-02-14T09:02:37;10.10;99.90
23283;DHT22;11810;51.178;3.878;2023-02-14T09:05:04;10.80;99.90
23283;DHT22;11810;51.178;3.878;2023-02-14T09:07:30;11.50;99.90
23283;DHT22;11810;51.178;3.878;2023-02-14T09:09:56;11.80;99.90
23283;DHT22;11810;51.178;3.878;2023-02-14T09:12:22;11.80;99.90
23283;DHT22;11810;51.178;3.878;2023-02-14T09:14:48;12.50;99.90
23283;DHT22;11810;51.178;3.878;2023-02-14T09:17:15;13.10;99.90
23283;DHT22;11810;51.178;3.878;2023-02-14T09:19:41;13.30;99.90
23283;DHT22;11810;51.178;3.878;2023-02-14T09:22:09;14.00;99.90
23283;DHT22;11810;51.178;3.878;2023-02-14T09:24:37;14.40;99.90
23283;DHT22;11810;51.178;3.878;2023-02-14T09:27:04;14.60;99.90
23283;DHT22;11810;51.178;3.878;2023-02-14T09:29:30;15.40;99.90
23283;DHT22;11810;51.178;3.878;2023-02-14T09:31:58;15.60;99.90
23283;DHT22;11810;51.178;3.878;2023-02-14T09:34:28;15.60;99.90
23283;DHT22;11810;51.178;3.878;2023-02-14T09:37:33;15.90;99.90
23283;DHT22;11810;51.178;3.878;2023-02-14T09:39:59;16.10;99.90
23283;DHT22;11810;51.178;3.878;2023-02-14T09:45:27;17.00;99.90
23283;DHT22;11810;51.178;3.878;2023-02-14T09:47:59;16.80;99.90
23283;DHT22;11810;51.178;3.878;2023-02-14T09:50:38;16.60;99.90
23283;DHT22;11810;51.178;3.878;2023-02-14T10:01:49;18.10;99.90
23283;DHT22;11810;51.178;3.878;2023-02-14T10:07:19;18.20;99.90
23283;DHT22;11810;51.178;3.878;2023-02-14T10:15:29;19.10;99.90
23283;DHT22;11810;51.178;3.878;2023-02-14T10:18:04;19.10;99.90
23283;DHT22;11810;51.178;3.878;2023-02-14T10:20:40;19.40;99.90
23283;DHT22;11810;51.178;3.878;2023-02-14T10:26:15;19.00;99.90
23283;DHT22;11810;51.178;3.878;2023-02-14T10:28:46;18.50;99.90
23283;DHT22;11810;51.178;3.878;2023-02-14T10:31:25;18.60;99.90
23283;DHT22;11810;51.178;3.878;2023-02-14T10:33:54;18.40;99.90
23283;DHT22;11810;51.178;3.878;2023-02-14T10:47:10;16.50;99.90
23283;DHT22;11810;51.178;3.878;2023-02-14T10:52:34;18.50;99.90
23283;DHT22;11810;51.178;3.878;2023-02-14T10:55:19;19.10;99.90
23283;DHT22;11810;51.178;3.878;2023-02-14T10:57:50;19.10;99.90
23283;DHT22;11810;51.178;3.878;2023-02-14T11:00:29;18.80;99.90
23283;DHT22;11810;51.178;3.878;2023-02-14T11:02:57;17.80;99.90
23283;DHT22;11810;51.178;3.878;2023-02-14T11:05:34;18.30;99.90
23283;DHT22;11810;51.178;3.878;2023-02-14T11:08:09;18.80;99.90
23283;DHT22;11810;51.178;3.878;2023-02-14T11:10:37;19.40;99.90
23283;DHT22;11810;51.178;3.878;2023-02-14T11:13:31;19.90;99.90
23283;DHT22;11810;51.178;3.878;2023-02-14T11:16:08;19.30;99.90
23283;DHT22;11810;51.178;3.878;2023-02-14T11:18:36;18.00;99.90
23283;DHT22;11810;51.178;3.878;2023-02-14T11:21:12;16.30;99.90
23283;DHT22;11810;51.178;3.878;2023-02-14T11:23:47;15.70;99.90
23283;DHT22;11810;51.178;3.878;2023-02-14T11:26:19;15.40;99.90
23283;DHT22;11810;51.178;3.878;2023-02-14T11:28:55;14.90;99.90
23283;DHT22;11810;51.178;3.878;2023-02-14T11:31:34;14.90;99.90
23283;DHT22;11810;51.178;3.878;2023-02-14T11:34:03;14.40;99.90
23283;DHT22;11810;51.178;3.878;2023-02-14T11:36:30;14.40;99.90
23283;DHT22;11810;51.178;3.878;2023-02-14T11:39:17;15.80;99.90
23283;DHT22;11810;51.178;3.878;2023-02-14T11:41:52;17.30;99.90
23283;DHT22;11810;51.178;3.878;2023-02-14T11:44:26;18.00;99.90
23283;DHT22;11810;51.178;3.878;2023-02-14T11:46:54;18.80;99.90
23283;DHT22;11810;51.178;3.878;2023-02-14T11:49:32;18.60;99.90
23283;DHT22;11810;51.178;3.878;2023-02-14T11:52:07;18.70;99.90
23283;DHT22;11810;51.178;3.878;2023-02-14T11:54:40;18.90;99.90
23283;DHT22;11810;51.178;3.878;2023-02-14T11:57:23;19.20;99.90
23283;DHT22;11810;51.178;3.878;2023-02-14T11:59:54;20.00;99.90
23283;DHT22;11810;51.178;3.878;2023-02-14T12:02:24;20.30;99.90
23283;DHT22;11810;51.178;3.878;2023-02-14T12:04:58;21.10;99.90
23283;DHT22;11810;51.178;3.878;2023-02-14T12:07:26;20.80;99.90
23283;DHT22;11810;51.178;3.878;2023-02-14T12:12:59;20.50;99.90
23283;DHT22;11810;51.178;3.878;2023-02-14T12:15:39;19.80;99.90
23283;DHT22;11810;51.178;3.878;2023-02-14T12:21:22;19.50;99.90
23283;DHT22;11810;51.178;3.878;2023-02-14T12:24:02;19.70;99.90
23283;DHT22;11810;51.178;3.878;2023-02-14T12:26:51;20.50;99.90
23283;DHT22;11810;51.178;3.878;2023-02-14T12:32:24;21.40;99.90
23283;DHT22;11810;51.178;3.878;2023-02-14T12:34:55;21.30;99.90
23283;DHT22;11810;51.178;3.878;2023-02-14T12:43:09;21.80;99.90
23283;DHT22;11810;51.178;3.878;2023-02-14T13:07:55;21.30;99.90
23283;DHT22;11810;51.178;3.878;2023-02-14T13:10:51;21.20;99.90
23283;DHT22;11810;51.178;3.878;2023-02-14T13:13:52;21.30;99.90
23283;DHT22;11810;51.178;3.878;2023-02-14T13:16:56;21.80;99.90
23283;DHT22;11810;51.178;3.878;2023-02-14T13:21:53;21.00;99.90
23283;DHT22;11810;51.178;3.878;2023-02-14T13:24:32;20.90;99.90
23283;DHT22;11810;51.178;3.878;2023-02-14T13:27:01;21.00;99.90
23283;DHT22;11810;51.178;3.878;2023-02-14T13:29:43;20.40;99.90
23283;DHT22;11810;51.178;3.878;2023-02-14T13:32:13;20.70;99.90
23283;DHT22;11810;51.178;3.878;2023-02-14T13:34:45;19.80;99.90
23283;DHT22;11810;51.178;3.878;2023-02-14T13:37:15;18.90;99.90
23283;DHT22;11810;51.178;3.878;2023-02-14T13:39:46;18.60;99.90
23283;DHT22;11810;51.178;3.878;2023-02-14T13:48:13;17.30;99.90
23283;DHT22;11810;51.178;3.878;2023-02-14T13:51:06;17.30;99.90
23283;DHT22;11810;51.178;3.878;2023-02-14T13:58:49;16.80;99.90
23283;DHT22;11810;51.178;3.878;2023-02-14T14:01:32;16.70;99.90
23283;DHT22;11810;51.178;3.878;2023-02-14T14:04:02;16.50;99.90
23283;DHT22;11810;51.178;3.878;2023-02-14T14:06:28;16.50;99.90
23283;DHT22;11810;51.178;3.878;2023-02-14T14:08:55;16.50;99.90
23283;DHT22;11810;51.178;3.878;2023-02-14T14:16:39;16.40;99.90
23283;DHT22;11810;51.178;3.878;2023-02-14T14:22:10;16.60;99.90
23283;DHT22;11810;51.178;3.878;2023-02-14T14:24:40;16.30;99.90
23283;DHT22;11810;51.178;3.878;2023-02-14T14:27:21;16.60;99.90
23283;DHT22;11810;51.178;3.878;2023-02-14T14:29:59;16.80;99.90
23283;DHT22;11810;51.178;3.878;2023-02-14T14:32:36;17.00;99.90
23283;DHT22;11810;51.178;3.878;2023-02-14T14:37:49;17.30;99.90
23283;DHT22;11810;51.178;3.878;2023-02-14T14:40:35;17.30;99.90
23283;DHT22;11810;51.178;3.878;2023-02-14T14:43:11;16.90;99.90
23283;DHT22;11810;51.178;3.878;2023-02-14T14:45:38;16.50;99.90
23283;DHT22;11810;51.178;3.878;2023-02-14T14:48:17;16.40;99.90
23283;DHT22;11810;51.178;3.878;2023-02-14T14:50:45;16.70;99.90
23283;DHT22;11810;51.178;3.878;2023-02-14T14:53:40;17.20;99.90
23283;DHT22;11810;51.178;3.878;2023-02-14T15:01:52;16.90;99.90
23283;DHT22;11810;51.178;3.878;2023-02-14T15:04:30;16.80;99.90
23283;DHT22;11810;51.178;3.878;2023-02-14T15:07:15;16.80;99.90
23283;DHT22;11810;51.178;3.878;2023-02-14T15:09:42;16.50;99.90
23283;DHT22;11810;51.178;3.878;2023-02-14T15:12:08;16.30;99.90
23283;DHT22;11810;51.178;3.878;2023-02-14T15:14:53;15.90;99.90
23283;DHT22;11810;51.178;3.878;2023-02-14T15:17:24;15.80;99.90
23283;DHT22;11810;51.178;3.878;2023-02-14T15:19:59;15.70;99.90
23283;DHT22;11810;51.178;3.878;2023-02-14T15:22:29;15.90;99.90
23283;DHT22;11810;51.178;3.878;2023-02-14T15:24:59;16.10;99.90
23283;DHT22;11810;51.178;3.878;2023-02-14T15:27:26;16.10;99.90
23283;DHT22;11810;51.178;3.878;2023-02-14T15:29:58;16.00;99.90
23283;DHT22;11810;51.178;3.878;2023-02-14T15:32:26;15.80;99.90
23283;DHT22;11810;51.178;3.878;2023-02-14T15:34:54;15.70;99.90
23283;DHT22;11810;51.178;3.878;2023-02-14T15:37:22;15.70;99.90
23283;DHT22;11810;51.178;3.878;2023-02-14T15:39:50;15.50;99.90
23283;DHT22;11810;51.178;3.878;2023-02-14T15:42:26;15.10;99.90
23283;DHT22;11810;51.178;3.878;2023-02-14T15:47:54;14.40;99.90
23283;DHT22;11810;51.178;3.878;2023-02-14T15:50:32;14.30;99.90
23283;DHT22;11810;51.178;3.878;2023-02-14T15:53:05;14.00;99.90
23283;DHT22;11810;51.178;3.878;2023-02-14T15:55:33;13.80;99.90
23283;DHT22;11810;51.178;3.878;2023-02-14T15:58:05;13.40;99.90
23283;DHT22;11810;51.178;3.878;2023-02-14T16:00:36;13.30;99.90
23283;DHT22;11810;51.178;3.878;2023-02-14T16:03:07;13.20;99.90
23283;DHT22;11810;51.178;3.878;2023-02-14T16:05:35;13.00;99.90
23283;DHT22;11810;51.178;3.878;2023-02-14T16:08:04;12.80;99.90
23283;DHT22;11810;51.178;3.878;2023-02-14T16:10:33;12.70;99.90
23283;DHT22;11810;51.178;3.878;2023-02-14T16:15:42;12.50;99.90
23283;DHT22;11810;51.178;3.878;2023-02-14T16:18:37;12.20;99.90
23283;DHT22;11810;51.178;3.878;2023-02-14T16:26:43;11.80;99.90
23283;DHT22;11810;51.178;3.878;2023-02-14T16:29:14;11.70;99.90
23283;DHT22;11810;51.178;3.878;2023-02-14T16:31:49;11.50;99.90
23283;DHT22;11810;51.178;3.878;2023-02-14T16:34:16;11.30;99.90
23283;DHT22;11810;51.178;3.878;2023-02-14T16:36:42;11.20;99.90
23283;DHT22;11810;51.178;3.878;2023-02-14T16:39:19;11.00;99.90
23283;DHT22;11810;51.178;3.878;2023-02-14T16:41:48;11.00;99.90
23283;DHT22;11810;51.178;3.878;2023-02-14T16:44:16;10.70;99.90
23283;DHT22;11810;51.178;3.878;2023-02-14T16:46:44;10.60;99.90
23283;DHT22;11810;51.178;3.878;2023-02-14T16:49:10;10.40;99.90
23283;DHT22;11810;51.178;3.878;2023-02-14T16:51:38;10.30;99.90
23283;DHT22;11810;51.178;3.878;2023-02-14T16:54:20;10.20;99.90
23283;DHT22;11810;51.178;3.878;2023-02-14T16:56:59;10.10;99.90
23283;DHT22;11810;51.178;3.878;2023-02-14T16:59:27;9.90;99.90
23283;DHT22;11810;51.178;3.878;2023-02-14T17:01:54;9.70;99.90
23283;DHT22;11810;51.178;3.878;2023-02-14T17:04:21;9.60;99.90
23283;DHT22;11810;51.178;3.878;2023-02-14T17:06:52;9.50;99.90
23283;DHT22;11810;51.178;3.878;2023-02-14T17:09:22;9.40;99.90
23283;DHT22;11810;51.178;3.878;2023-02-14T17:11:53;9.30;99.90
23283;DHT22;11810;51.178;3.878;2023-02-14T17:14:23;9.10;99.90
23283;DHT22;11810;51.178;3.878;2023-02-14T17:16:52;9.00;99.90
23283;DHT22;11810;51.178;3.878;2023-02-14T17:19:19;8.90;99.90
23283;DHT22;11810;51.178;3.878;2023-02-14T17:21:45;8.80;99.90
23283;DHT22;11810;51.178;3.878;2023-02-14T17:24:11;8.70;99.90
23283;DHT22;11810;51.178;3.878;2023-02-14T17:26:36;8.70;99.90
23283;DHT22;11810;51.178;3.878;2023-02-14T17:29:03;8.60;99.90
23283;DHT22;11810;51.178;3.878;2023-02-14T17:31:29;8.50;99.90
23283;DHT22;11810;51.178;3.878;2023-02-14T17:33:55;8.40;99.90
23283;DHT22;11810;51.178;3.878;2023-02-14T17:36:21;8.30;99.90
23283;DHT22;11810;51.178;3.878;2023-02-14T17:38:50;8.20;99.90
23283;DHT22;11810;51.178;3.878;2023-02-14T17:41:19;8.10;99.90
23283;DHT22;11810;51.178;3.878;2023-02-14T17:43:47;8.10;99.90
23283;DHT22;11810;51.178;3.878;2023-02-14T17:46:14;8.00;99.90
23283;DHT22;11810;51.178;3.878;2023-02-14T17:48:44;8.00;99.90
23283;DHT22;11810;51.178;3.878;2023-02-14T17:54:36;7.70;99.90
23283;DHT22;11810;51.178;3.878;2023-02-14T17:58:33;7.40;99.90
23283;DHT22;11810;51.178;3.878;2023-02-14T18:01:04;7.40;99.90
23283;DHT22;11810;51.178;3.878;2023-02-14T18:03:31;7.20;99.90
23283;DHT22;11810;51.178;3.878;2023-02-14T18:05:58;7.00;99.90
23283;DHT22;11810;51.178;3.878;2023-02-14T18:08:29;7.00;99.90
23283;DHT22;11810;51.178;3.878;2023-02-14T18:10:55;6.80;99.90
23283;DHT22;11810;51.178;3.878;2023-02-14T18:13:24;6.80;99.90
23283;DHT22;11810;51.178;3.878;2023-02-14T18:15:53;6.70;99.90
23283;DHT22;11810;51.178;3.878;2023-02-14T18:18:34;6.70;99.90
23283;DHT22;11810;51.178;3.878;2023-02-14T18:21:02;6.60;99.90
23283;DHT22;11810;51.178;3.878;2023-02-14T18:23:29;6.60;99.90
23283;DHT22;11810;51.178;3.878;2023-02-14T18:25:57;6.50;99.90
23283;DHT22;11810;51.178;3.878;2023-02-14T18:28:25;6.50;99.90
23283;DHT22;11810;51.178;3.878;2023-02-14T18:30:52;6.40;99.90
23283;DHT22;11810;51.178;3.878;2023-02-14T18:33:19;6.30;99.90
23283;DHT22;11810;51.178;3.878;2023-02-14T18:35:45;6.20;99.90
23283;DHT22;11810;51.178;3.878;2023-02-14T18:38:11;6.20;99.90
23283;DHT22;11810;51.178;3.878;2023-02-14T18:41:36;6.20;99.90
23283;DHT22;11810;51.178;3.878;2023-02-14T18:44:03;6.10;99.90
23283;DHT22;11810;51.178;3.878;2023-02-14T18:46:31;6.00;99.90
23283;DHT22;11810;51.178;3.878;2023-02-14T18:48:58;5.90;99.90
23283;DHT22;11810;51.178;3.878;2023-02-14T18:51:33;5.70;99.90
23283;DHT22;11810;51.178;3.878;2023-02-14T18:54:03;5.60;99.90
23283;DHT22;11810;51.178;3.878;2023-02-14T18:56:31;5.60;99.90
23283;DHT22;11810;51.178;3.878;2023-02-14T18:59:00;5.60;99.90
23283;DHT22;11810;51.178;3.878;2023-02-14T19:02:39;5.60;99.90
23283;DHT22;11810;51.178;3.878;2023-02-14T19:05:08;5.50;99.90
23283;DHT22;11810;51.178;3.878;2023-02-14T19:07:34;5.40;99.90
23283;DHT22;11810;51.178;3.878;2023-02-14T19:10:01;5.20;99.90
23283;DHT22;11810;51.178;3.878;2023-02-14T19:12:30;5.10;99.90
23283;DHT22;11810;51.178;3.878;2023-02-14T19:14:56;5.20;99.90
23283;DHT22;11810;51.178;3.878;2023-02-14T19:17:22;5.10;99.90
23283;DHT22;11810;51.178;3.878;2023-02-14T19:19:50;5.10;99.90
23283;DHT22;11810;51.178;3.878;2023-02-14T19:23:09;5.00;99.90
23283;DHT22;11810;51.178;3.878;2023-02-14T19:25:34;5.10;99.90
23283;DHT22;11810;51.178;3.878;2023-02-14T19:28:03;5.00;99.90
23283;DHT22;11810;51.178;3.878;2023-02-14T19:30:29;5.00;99.90
23283;DHT22;11810;51.178;3.878;2023-02-14T19:33:08;4.90;99.90